Time;durP1;ratioP1;P1;durP2;ratioP2;P2;SDS_P1;SDS_P2;PMS_P1;PMS_P2;Temp;Humidity;BMP_temperature;BMP_pressure;BME280_temperature;BME280_humidity;BME280_pressure;Samples;Min_cycle;Max_cycle;Signal;HPM_P1;HPM_P2
2023/10/07 00:01:27;;;;;;;9.15;2.60;;;11.50;99.90;;;;;;5033185;28;20063;-80
2023/10/07 00:03:58;;;;;;;6.93;2.53;;;11.50;99.90;;;;;;5039586;28;20057;-80
2023/10/07 00:06:27;;;;;;;5.60;2.22;;;11.60;99.90;;;;;;5017606;28;20057;-80
2023/10/07 00:08:58;;;;;;;7.05;2.80;;;11.50;99.90;;;;;;5039079;28;20143;-80
2023/10/07 00:11:27;;;;;;;10.52;2.60;;;11.40;99.90;;;;;;5034929;28;20140;-80
2023/10/07 00:13:55;;;;;;;7.80;3.08;;;11.40;99.90;;;;;;5040527;28;20404;-80
2023/10/07 00:16:23;;;;;;;6.85;3.08;;;11.40;99.90;;;;;;5024041;28;20073;-80
2023/10/07 00:18:53;;;;;;;9.52;3.20;;;11.40;99.90;;;;;;5019871;28;22640;-80
2023/10/07 00:21:27;;;;;;;10.00;2.97;;;11.40;99.90;;;;;;5036130;28;20149;-80
2023/10/07 00:23:57;;;;;;;8.63;3.65;;;11.40;99.90;;;;;;5027503;28;20053;-80
2023/10/07 00:26:26;;;;;;;8.02;2.90;;;11.30;99.90;;;;;;5035148;28;20060;-80
2023/10/07 00:29:00;;;;;;;9.63;4.00;;;11.30;99.90;;;;;;5031364;28;20041;-80
2023/10/07 00:31:32;;;;;;;8.50;3.67;;;11.30;99.90;;;;;;5044426;28;20056;-79
2023/10/07 00:34:18;;;;;;;11.15;3.38;;;11.30;99.90;;;;;;5040786;28;20131;-79
2023/10/07 00:36:47;;;;;;;9.20;3.47;;;11.20;99.90;;;;;;5047945;28;20049;-80
2023/10/07 00:39:21;;;;;;;8.88;3.22;;;11.20;99.90;;;;;;5046227;28;20053;-80
2023/10/07 00:41:57;;;;;;;8.90;3.72;;;11.20;99.90;;;;;;5063174;28;20045;-80
2023/10/07 00:44:32;;;;;;;10.93;4.03;;;11.20;99.90;;;;;;5037457;28;20151;-80
2023/10/07 00:49:43;;;;;;;11.40;4.28;;;11.10;99.90;;;;;;5034181;28;20508;-80
2023/10/07 00:52:14;;;;;;;10.52;4.32;;;11.10;99.90;;;;;;5049198;28;20056;-80
2023/10/07 00:54:50;;;;;;;9.13;3.92;;;11.10;99.90;;;;;;5047790;28;20067;-80
2023/10/07 00:57:28;;;;;;;9.65;3.75;;;11.10;99.90;;;;;;5029233;28;20037;-80
2023/10/07 00:59:57;;;;;;;11.82;4.20;;;11.10;99.90;;;;;;5063105;28;20048;-80
2023/10/07 01:02:30;;;;;;;9.13;4.28;;;11.10;99.90;;;;;;5041511;28;20041;-80
2023/10/07 01:05:07;;;;;;;11.63;3.50;;;11.00;99.90;;;;;;5026348;28;20064;-80
2023/10/07 01:07:34;;;;;;;12.43;4.13;;;11.00;99.90;;;;;;5047263;28;20088;-80
2023/10/07 01:12:38;;;;;;;14.50;4.63;;;11.00;99.90;;;;;;5065411;28;20045;-80
2023/10/07 01:17:53;;;;;;;8.65;4.53;;;11.00;99.90;;;;;;5035656;28;20056;-80
2023/10/07 01:20:22;;;;;;;10.90;4.05;;;10.90;99.90;;;;;;5060511;28;20045;-80
2023/10/07 01:23:32;;;;;;;11.55;4.47;;;10.90;99.90;;;;;;5035748;28;20115;-80
2023/10/07 01:25:50;;;;;;;;;;;10.90;99.90;;;;;;5044624;28;20522;-80
2023/10/07 01:28:20;;;;;;;13.30;4.63;;;10.90;99.90;;;;;;5027170;28;19935;-80
2023/10/07 01:31:12;;;;;;;11.65;4.78;;;10.90;99.90;;;;;;5043817;28;20099;-80
2023/10/07 01:33:41;;;;;;;9.55;4.28;;;10.80;99.90;;;;;;5040437;28;20049;-80
2023/10/07 01:36:11;;;;;;;10.95;3.92;;;10.80;99.90;;;;;;5059885;28;20423;-80
2023/10/07 01:38:51;;;;;;;11.48;4.20;;;10.80;99.90;;;;;;5062114;28;20048;-80
2023/10/07 01:41:20;;;;;;;11.93;4.80;;;10.80;99.90;;;;;;5057638;28;20048;-80
2023/10/07 01:43:59;;;;;;;10.02;4.22;;;10.80;99.90;;;;;;5021597;28;20099;-79
2023/10/07 01:46:29;;;;;;;12.48;4.68;;;10.70;99.90;;;;;;5043220;28;20049;-79
2023/10/07 01:49:05;;;;;;;12.52;4.32;;;10.70;99.90;;;;;;5022457;28;20049;-80
2023/10/07 01:51:32;;;;;;;10.55;4.38;;;10.70;99.90;;;;;;5039703;28;20047;-80
2023/10/07 01:54:03;;;;;;;11.48;4.15;;;10.70;99.90;;;;;;5044967;28;20064;-80
2023/10/07 01:56:34;;;;;;;11.48;4.80;;;10.70;99.90;;;;;;5028896;28;20048;-80
2023/10/07 01:59:21;;;;;;;10.93;4.57;;;10.60;99.90;;;;;;5027363;28;20981;-80
2023/10/07 02:01:53;;;;;;;10.05;3.85;;;10.60;99.90;;;;;;5024421;28;20064;-80
2023/10/07 02:04:26;;;;;;;;;;;10.60;99.90;;;;;;5047076;28;20108;-80
2023/10/07 02:06:56;;;;;;;8.35;3.80;;;10.60;99.90;;;;;;5046719;28;19959;-80
2023/10/07 02:09:25;;;;;;;11.60;4.15;;;10.60;99.90;;;;;;5045366;28;20045;-80
2023/10/07 02:11:56;;;;;;;15.73;4.72;;;10.50;99.90;;;;;;5026644;28;20071;-80
2023/10/07 02:14:25;;;;;;;10.07;4.30;;;10.50;99.90;;;;;;5044715;28;20064;-80
2023/10/07 02:16:56;;;;;;;11.57;4.53;;;10.50;99.90;;;;;;5024114;28;20049;-80
2023/10/07 02:19:31;;;;;;;8.95;4.32;;;10.50;99.90;;;;;;5027332;28;20057;-80
2023/10/07 02:22:03;;;;;;;12.18;4.78;;;10.50;99.90;;;;;;5027120;28;20064;-80
2023/10/07 02:24:32;;;;;;;9.77;4.60;;;10.50;99.90;;;;;;5044654;28;20087;-80
2023/10/07 02:27:05;;;;;;;9.90;4.75;;;10.40;99.90;;;;;;5037891;28;20301;-80
2023/10/07 02:29:34;;;;;;;9.90;4.40;;;10.40;99.90;;;;;;5027606;28;20044;-80
2023/10/07 02:32:35;;;;;;;7.88;3.92;;;10.40;99.90;;;;;;5042721;28;20052;-80
2023/10/07 02:34:55;;;;;;;8.95;4.05;;;10.40;99.90;;;;;;5057619;28;20082;-80
2023/10/07 02:37:31;;;;;;;9.68;4.22;;;10.40;99.90;;;;;;5042432;28;20077;-80
2023/10/07 02:42:46;;;;;;;9.73;4.18;;;10.30;99.90;;;;;;5045939;28;20037;-80
2023/10/07 02:47:50;;;;;;;10.70;4.43;;;10.30;99.90;;;;;;5041574;28;20041;-80
2023/10/07 02:50:18;;;;;;;7.22;3.92;;;10.30;99.90;;;;;;5031921;28;22565;-80
2023/10/07 02:52:46;;;;;;;9.35;4.25;;;10.20;99.90;;;;;;5018270;28;20048;-80
2023/10/07 02:57:46;;;;;;;10.20;4.75;;;10.30;99.90;;;;;;5031915;28;20129;-80
2023/10/07 03:00:36;;;;;;;6.95;4.00;;;10.20;99.90;;;;;;5046807;28;20084;-80
2023/10/07 03:06:00;;;;;;;11.88;5.07;;;10.20;99.90;;;;;;5038104;28;20087;-80
2023/10/07 03:08:40;;;;;;;10.25;4.55;;;10.20;99.90;;;;;;5029686;28;20450;-80
2023/10/07 03:11:11;;;;;;;10.43;4.80;;;10.20;99.90;;;;;;5023060;28;20045;-80
2023/10/07 03:13:49;;;;;;;10.63;5.35;;;10.20;99.90;;;;;;5044025;28;20055;-80
2023/10/07 03:24:13;;;;;;;7.88;3.80;;;10.20;99.90;;;;;;5058452;28;20912;-80
2023/10/07 03:26:43;;;;;;;9.38;4.60;;;10.30;99.90;;;;;;5043998;28;22576;-80
2023/10/07 03:29:21;;;;;;;8.65;3.83;;;10.30;99.90;;;;;;5030505;28;20047;-80
2023/10/07 03:31:48;;;;;;;11.50;5.35;;;10.20;99.90;;;;;;5043597;28;20554;-80
2023/10/07 03:34:16;;;;;;;8.57;4.20;;;10.30;99.90;;;;;;5042737;28;20052;-80
2023/10/07 03:36:57;;;;;;;10.02;4.47;;;10.30;99.90;;;;;;5041902;28;20688;-80
2023/10/07 03:39:42;;;;;;;14.07;5.38;;;10.30;99.90;;;;;;5041612;28;20059;-80
2023/10/07 03:42:09;;;;;;;12.25;5.25;;;10.30;99.90;;;;;;5043644;28;20037;-80
2023/10/07 03:44:37;;;;;;;12.80;5.07;;;10.20;99.90;;;;;;5043363;28;20110;-80
2023/10/07 03:47:10;;;;;;;13.10;4.85;;;10.20;99.90;;;;;;5039971;28;22570;-80
2023/10/07 03:49:40;;;;;;;12.30;4.25;;;10.20;99.90;;;;;;5040997;28;20114;-80
2023/10/07 03:52:12;;;;;;;10.13;4.25;;;10.10;99.90;;;;;;5031119;28;20477;-80
2023/10/07 03:54:40;;;;;;;11.98;5.53;;;10.10;99.90;;;;;;5042582;28;20056;-80
2023/10/07 03:57:09;;;;;;;13.25;5.28;;;10.10;99.90;;;;;;5048231;28;20053;-80
2023/10/07 03:59:39;;;;;;;11.10;4.40;;;10.10;99.90;;;;;;5043809;28;22473;-80
2023/10/07 04:02:30;;;;;;;13.90;5.72;;;10.10;99.90;;;;;;5029052;28;20045;-80
2023/10/07 04:05:00;;;;;;;10.25;5.03;;;10.10;99.90;;;;;;5032784;28;22471;-80
2023/10/07 04:07:30;;;;;;;15.45;5.45;;;10.10;99.90;;;;;;5023726;28;20056;-80
2023/10/07 04:10:15;;;;;;;9.52;4.75;;;10.20;99.90;;;;;;5047688;28;20051;-80
2023/10/07 04:12:46;;;;;;;12.57;5.55;;;10.20;99.90;;;;;;5046120;28;20053;-80
2023/10/07 04:15:17;;;;;;;13.65;4.43;;;10.30;99.90;;;;;;5045900;28;20063;-80
2023/10/07 04:17:45;;;;;;;10.40;4.60;;;10.20;99.90;;;;;;5046557;28;20041;-80
2023/10/07 04:20:19;;;;;;;10.23;4.78;;;10.10;99.90;;;;;;5048328;28;20037;-80
2023/10/07 04:22:57;;;;;;;11.98;5.20;;;10.10;99.90;;;;;;5031423;28;20170;-80
2023/10/07 04:25:27;;;;;;;10.25;4.70;;;10.10;99.90;;;;;;5022378;28;20492;-80
2023/10/07 04:27:55;;;;;;;10.35;4.47;;;10.10;99.90;;;;;;5043824;28;20045;-80
2023/10/07 04:30:38;;;;;;;11.60;4.40;;;10.10;99.90;;;;;;5044225;28;20056;-80
2023/10/07 04:33:08;;;;;;;9.82;4.47;;;10.10;99.90;;;;;;5041918;28;22584;-80
2023/10/07 04:35:37;;;;;;;12.70;4.72;;;10.10;99.90;;;;;;5043897;28;20488;-80
2023/10/07 04:41:43;;;;;;;11.27;4.03;;;10.00;99.90;;;;;;5021681;28;20202;-80
2023/10/07 04:43:49;;;;;;;14.20;4.57;;;10.00;99.90;;;;;;5028456;28;20057;-80
2023/10/07 04:46:29;;;;;;;12.00;4.88;;;9.90;99.90;;;;;;5034056;28;20167;-80
2023/10/07 04:49:12;;;;;;;11.35;5.13;;;9.90;99.90;;;;;;5045368;28;20063;-80
2023/10/07 04:54:12;;;;;;;11.80;5.70;;;9.80;99.90;;;;;;5043886;28;20122;-80
2023/10/07 04:56:40;;;;;;;12.93;5.40;;;9.80;99.90;;;;;;5028531;28;20032;-80
2023/10/07 04:59:09;;;;;;;14.13;6.90;;;9.80;99.90;;;;;;5060339;28;20041;-80
2023/10/07 05:01:41;;;;;;;16.33;6.07;;;9.80;99.90;;;;;;5044169;28;20088;-79
2023/10/07 05:04:15;;;;;;;;;;;9.70;99.90;;;;;;5061957;28;20076;-79
2023/10/07 05:06:43;;;;;;;11.60;5.43;;;9.70;99.90;;;;;;5022013;28;19936;-80
2023/10/07 05:09:18;;;;;;;18.50;7.68;;;9.70;99.90;;;;;;5041107;28;20041;-80
2023/10/07 05:11:48;;;;;;;17.83;7.95;;;9.70;99.90;;;;;;5030393;28;20533;-80
2023/10/07 05:14:17;;;;;;;18.92;7.55;;;9.80;99.90;;;;;;5027368;28;20057;-80
2023/10/07 05:16:48;;;;;;;14.73;6.95;;;9.70;99.90;;;;;;5042281;28;20057;-80
2023/10/07 05:19:21;;;;;;;15.98;8.50;;;9.80;99.90;;;;;;5059530;28;20052;-79
2023/10/07 05:24:38;;;;;;;14.30;6.35;;;9.90;99.90;;;;;;5030839;28;20050;-80
2023/10/07 05:27:06;;;;;;;13.65;6.43;;;9.90;99.90;;;;;;5022202;28;20156;-80
2023/10/07 05:29:33;;;;;;;14.68;5.53;;;9.90;99.90;;;;;;5026009;28;20041;-80
2023/10/07 05:32:00;;;;;;;13.05;5.50;;;9.90;99.90;;;;;;5026977;28;20146;-80
2023/10/07 05:34:29;;;;;;;14.77;6.00;;;10.00;99.90;;;;;;5033286;28;20049;-80
2023/10/07 05:37:10;;;;;;;17.58;6.10;;;10.10;99.90;;;;;;5044606;28;20049;-80
2023/10/07 05:39:42;;;;;;;10.88;4.93;;;10.10;99.90;;;;;;5035589;28;20106;-80
2023/10/07 05:42:11;;;;;;;13.80;5.38;;;10.20;99.90;;;;;;5042573;28;20135;-80
2023/10/07 05:44:39;;;;;;;12.63;5.22;;;10.30;99.90;;;;;;5047104;28;20391;-80
2023/10/07 05:47:08;;;;;;;15.68;5.82;;;10.40;99.90;;;;;;5020839;28;20057;-80
2023/10/07 05:49:37;;;;;;;13.10;5.50;;;10.40;99.90;;;;;;5043048;28;22509;-80
2023/10/07 05:52:05;;;;;;;14.00;4.60;;;10.50;99.90;;;;;;5043316;28;22493;-80
2023/10/07 05:54:33;;;;;;;11.32;5.32;;;10.50;99.90;;;;;;5043232;28;20110;-80
2023/10/07 05:57:06;;;;;;;16.80;5.75;;;10.60;99.90;;;;;;5029590;28;20046;-80
2023/10/07 05:59:33;;;;;;;12.05;5.35;;;10.60;99.90;;;;;;5039373;28;20045;-80
2023/10/07 06:02:05;;;;;;;13.10;5.40;;;10.70;99.90;;;;;;5061447;28;20064;-80
2023/10/07 06:04:39;;;;;;;12.25;5.88;;;10.80;99.90;;;;;;5046889;28;20053;-80
2023/10/07 06:07:07;;;;;;;15.77;8.00;;;11.30;99.90;;;;;;5041754;28;20068;-80
2023/10/07 06:09:36;;;;;;;16.75;7.63;;;11.10;99.90;;;;;;5025461;28;20965;-80
2023/10/07 06:12:07;;;;;;;15.45;6.75;;;11.20;99.90;;;;;;5032880;28;20049;-80
2023/10/07 06:14:38;;;;;;;15.02;6.95;;;11.40;99.90;;;;;;5024134;28;20077;-79
2023/10/07 06:17:06;;;;;;;15.98;6.55;;;11.50;99.90;;;;;;5031959;28;20052;-80
2023/10/07 06:19:34;;;;;;;12.07;6.85;;;11.60;99.90;;;;;;4995024;22;20057;-89
2023/10/07 06:22:11;;;;;;;11.27;5.70;;;11.80;99.90;;;;;;4992527;28;20051;-91
2023/10/07 06:24:40;;;;;;;12.80;6.40;;;12.00;99.90;;;;;;4961181;28;20431;-90
2023/10/07 06:27:11;;;;;;;12.40;5.93;;;12.00;99.90;;;;;;4982853;28;20061;-89
2023/10/07 06:29:43;;;;;;;14.13;6.50;;;12.00;99.90;;;;;;4968822;28;20735;-90
2023/10/07 06:34:45;;;;;;;14.73;7.30;;;12.30;99.90;;;;;;4977855;28;20046;-89
2023/10/07 06:37:12;;;;;;;13.68;6.82;;;12.30;99.90;;;;;;4992403;28;20074;-89
2023/10/07 06:39:40;;;;;;;15.02;6.55;;;12.30;99.90;;;;;;4960598;28;20057;-90
2023/10/07 06:42:09;;;;;;;13.20;6.68;;;12.40;99.90;;;;;;4975791;28;20082;-90
2023/10/07 06:44:40;;;;;;;15.95;7.18;;;12.50;99.90;;;;;;4974087;28;20051;-90
2023/10/07 06:47:10;;;;;;;14.02;6.68;;;12.60;99.90;;;;;;4990763;28;20053;-90
2023/10/07 06:49:39;;;;;;;13.80;6.90;;;12.60;99.90;;;;;;4974694;28;20118;-90
2023/10/07 06:52:12;;;;;;;19.25;7.70;;;12.60;99.90;;;;;;4976243;28;20058;-91
2023/10/07 06:54:39;;;;;;;13.57;6.90;;;12.60;99.90;;;;;;4975054;28;20071;-90
2023/10/07 06:57:28;;;;;;;14.05;6.63;;;12.60;99.90;;;;;;4982831;28;20054;-89
2023/10/07 06:59:55;;;;;;;15.45;6.80;;;12.60;99.90;;;;;;4978944;28;20050;-89
2023/10/07 07:02:34;;;;;;;12.50;6.22;;;12.70;99.90;;;;;;4974340;28;20177;-90
2023/10/07 07:05:11;;;;;;;15.75;6.13;;;12.70;99.90;;;;;;4979946;28;20046;-89
2023/10/07 07:07:39;;;;;;;18.20;6.70;;;12.80;99.90;;;;;;4977546;28;20062;-89
2023/10/07 07:10:07;;;;;;;12.57;6.35;;;12.80;99.90;;;;;;4988107;28;20050;-90
2023/10/07 07:12:35;;;;;;;12.07;7.00;;;12.80;99.90;;;;;;4976039;28;20569;-90
2023/10/07 07:15:05;;;;;;;13.68;5.47;;;12.90;99.90;;;;;;4959566;28;20658;-90
2023/10/07 07:17:36;;;;;;;12.23;5.40;;;13.00;99.90;;;;;;4959495;28;20054;-91
2023/10/07 07:22:38;;;;;;;15.27;6.63;;;13.00;99.90;;;;;;4972659;28;20058;-91
2023/10/07 07:25:12;;;;;;;15.48;6.78;;;13.00;99.90;;;;;;4979389;28;20514;-91
2023/10/07 07:27:48;;;;;;;13.23;6.95;;;13.00;99.90;;;;;;4992313;28;20042;-89
2023/10/07 07:30:38;;;;;;;12.48;6.15;;;13.10;99.90;;;;;;4958319;28;20047;-88
2023/10/07 07:33:11;;;;;;;11.80;5.85;;;13.10;99.90;;;;;;4989386;28;20047;-88
2023/10/07 07:35:40;;;;;;;16.67;7.20;;;13.30;99.90;;;;;;4956110;28;20046;-88
2023/10/07 07:38:32;;;;;;;12.82;6.07;;;13.70;99.90;;;;;;4981378;28;20064;-88
2023/10/07 07:43:58;;;;;;;11.48;6.28;;;14.30;99.90;;;;;;4985562;28;20511;-89
2023/10/07 07:46:29;;;;;;;9.77;5.10;;;14.30;99.90;;;;;;4975514;28;20050;-89
2023/10/07 07:49:06;;;;;;;13.25;5.72;;;14.50;99.90;;;;;;4958316;28;20053;-90
2023/10/07 07:51:37;;;;;;;11.48;4.93;;;14.60;99.90;;;;;;4990086;28;20050;-91
2023/10/07 07:54:06;;;;;;;11.32;5.38;;;14.80;99.90;;;;;;4957279;28;20055;-90
2023/10/07 07:56:35;;;;;;;10.73;4.53;;;14.90;99.90;;;;;;4983210;28;20042;-88
2023/10/07 07:59:15;;;;;;;13.40;5.18;;;14.90;99.90;;;;;;4957788;28;20059;-89
2023/10/07 08:01:45;;;;;;;11.60;4.85;;;14.90;99.90;;;;;;4947456;28;20054;-88
2023/10/07 08:04:37;;;;;;;9.30;4.93;;;15.00;99.90;;;;;;4957081;28;20065;-87
2023/10/07 08:07:11;;;;;;;13.57;4.72;;;14.90;99.90;;;;;;4978978;28;20055;-89
2023/10/07 08:09:41;;;;;;;10.32;4.80;;;14.80;99.90;;;;;;4970039;28;20050;-87
2023/10/07 08:12:09;;;;;;;10.85;5.20;;;14.80;99.90;;;;;;4937195;28;20082;-87
2023/10/07 08:14:39;;;;;;;11.07;5.30;;;14.90;99.90;;;;;;4962691;28;20735;-88
2023/10/07 08:17:08;;;;;;;9.48;4.95;;;15.00;99.90;;;;;;4964534;28;20082;-88
2023/10/07 08:19:40;;;;;;;12.60;4.85;;;15.40;99.90;;;;;;4985776;28;20065;-87
2023/10/07 08:22:18;;;;;;;10.63;5.43;;;15.70;99.90;;;;;;4973495;28;20122;-86
2023/10/07 08:24:46;;;;;;;15.80;5.28;;;15.80;99.90;;;;;;4984557;28;20054;-88
2023/10/07 08:30:06;;;;;;;14.80;4.90;;;16.20;99.90;;;;;;4975449;28;20183;-89
2023/10/07 08:32:43;;;;;;;10.80;5.05;;;16.40;99.90;;;;;;4959181;28;20050;-89
2023/10/07 08:35:19;;;;;;;11.35;5.07;;;16.40;99.90;;;;;;4964595;28;20173;-88
2023/10/07 08:37:47;;;;;;;11.25;5.18;;;16.70;99.90;;;;;;4965426;28;20085;-85
2023/10/07 08:40:29;;;;;;;9.65;4.63;;;16.60;99.90;;;;;;4972141;28;20058;-86
2023/10/07 08:43:04;;;;;;;11.57;4.77;;;16.60;99.90;;;;;;4952120;28;20077;-85
2023/10/07 08:45:33;;;;;;;9.85;3.47;;;16.50;99.90;;;;;;4938720;28;20303;-86
2023/10/07 08:48:17;;;;;;;6.68;3.70;;;16.40;99.90;;;;;;4977679;28;20125;-84
2023/10/07 08:50:55;;;;;;;9.05;3.72;;;16.50;99.90;;;;;;4951581;28;20046;-87
2023/10/07 08:53:23;;;;;;;7.18;3.35;;;16.60;99.90;;;;;;4980248;28;20085;-86
2023/10/07 08:55:54;;;;;;;8.63;4.00;;;16.60;99.90;;;;;;4952286;28;20780;-84
2023/10/07 08:58:27;;;;;;;9.65;3.90;;;16.60;99.90;;;;;;4953143;28;20109;-84
2023/10/07 09:00:56;;;;;;;12.55;4.00;;;16.80;99.90;;;;;;4972751;28;20054;-86
2023/10/07 09:03:28;;;;;;;10.95;3.45;;;17.00;99.90;;;;;;4989544;28;20059;-81
2023/10/07 09:06:06;;;;;;;9.77;4.85;;;17.10;99.90;;;;;;4974558;28;20503;-84
2023/10/07 09:08:33;;;;;;;10.68;3.40;;;17.30;99.90;;;;;;4960164;28;20061;-83
2023/10/07 09:11:07;;;;;;;8.27;3.47;;;17.40;99.90;;;;;;4944009;28;20054;-85
2023/10/07 09:13:38;;;;;;;10.32;3.33;;;17.50;99.80;;;;;;4933308;28;20120;-82
2023/10/07 09:16:10;;;;;;;6.95;3.60;;;17.50;98.40;;;;;;4963966;28;22557;-84
2023/10/07 09:18:41;;;;;;;8.30;3.20;;;17.50;99.30;;;;;;4978194;28;20160;-81
2023/10/07 09:21:19;;;;;;;8.45;3.63;;;17.60;98.30;;;;;;4962548;28;20098;-81
2023/10/07 09:23:58;;;;;;;7.05;3.28;;;17.80;96.90;;;;;;4971216;28;20058;-84
2023/10/07 09:26:41;;;;;;;13.50;3.88;;;17.90;96.60;;;;;;4964252;28;20056;-83
2023/10/07 09:29:15;;;;;;;11.43;3.70;;;18.00;95.60;;;;;;4933072;28;20046;-84
2023/10/07 09:31:45;;;;;;;10.40;3.65;;;18.10;95.80;;;;;;4949848;28;22495;-84
2023/10/07 09:34:30;;;;;;;9.27;2.80;;;18.10;95.30;;;;;;4946263;28;20551;-84
2023/10/07 09:36:58;;;;;;;8.50;3.05;;;18.30;93.60;;;;;;4931615;28;20426;-84
2023/10/07 09:39:34;;;;;;;7.97;3.17;;;18.50;93.30;;;;;;4933205;28;20170;-84
2023/10/07 09:42:05;;;;;;;8.35;3.03;;;18.70;93.20;;;;;;4950058;28;20873;-84
2023/10/07 09:44:37;;;;;;;8.45;3.35;;;18.80;92.10;;;;;;4945747;28;20133;-82
2023/10/07 09:47:13;;;;;;;11.32;3.45;;;18.80;92.40;;;;;;4956922;28;20053;-86
2023/10/07 09:49:41;;;;;;;8.63;3.15;;;18.80;91.90;;;;;;4957356;28;20112;-89
2023/10/07 09:52:17;;;;;;;7.85;3.80;;;18.80;91.80;;;;;;4945336;28;20057;-84
2023/10/07 09:55:21;;;;;;;9.90;3.13;;;18.90;91.40;;;;;;4949887;28;20785;-83
2023/10/07 09:58:00;;;;;;;7.95;3.20;;;19.00;91.60;;;;;;4969048;28;20073;-83
2023/10/07 10:00:38;;;;;;;10.18;3.53;;;18.90;91.60;;;;;;4963861;28;20053;-84
2023/10/07 10:03:28;;;;;;;9.18;3.25;;;18.90;91.40;;;;;;4944960;28;20046;-83
2023/10/07 10:05:58;;;;;;;7.82;2.92;;;18.90;92.00;;;;;;4970357;28;20058;-84
2023/10/07 10:08:57;;;;;;;7.70;2.92;;;19.10;91.80;;;;;;4957944;28;20822;-82
2023/10/07 10:16:53;;;;;;;8.52;2.40;;;19.40;90.20;;;;;;4953418;28;21262;-84
2023/10/07 10:19:26;;;;;;;6.53;2.58;;;19.40;90.00;;;;;;4968819;28;20074;-85
2023/10/07 10:21:53;;;;;;;6.22;2.72;;;19.50;87.60;;;;;;4929130;28;20077;-86
2023/10/07 10:24:29;;;;;;;8.45;2.28;;;19.50;87.00;;;;;;4968756;28;20164;-81
2023/10/07 10:27:04;;;;;;;5.50;2.25;;;19.50;87.20;;;;;;4950518;28;20064;-82
2023/10/07 10:29:36;;;;;;;6.05;2.60;;;19.50;86.30;;;;;;4966725;28;20046;-81
2023/10/07 10:32:12;;;;;;;;;;;19.50;86.50;;;;;;4954074;28;20086;-83
2023/10/07 10:34:40;;;;;;;8.13;2.45;;;19.60;86.20;;;;;;4949831;28;19941;-83
2023/10/07 10:37:09;;;;;;;7.82;3.45;;;19.60;86.40;;;;;;4978978;28;20050;-81
2023/10/07 10:39:39;;;;;;;7.40;2.20;;;19.70;86.40;;;;;;4973179;28;20491;-82
2023/10/07 10:42:13;;;;;;;5.90;2.10;;;19.70;86.50;;;;;;4949269;28;20041;-81
2023/10/07 10:44:46;;;;;;;8.82;2.58;;;19.70;86.30;;;;;;4935506;28;20065;-84
2023/10/07 10:47:17;;;;;;;20.75;3.75;;;19.70;86.30;;;;;;4961625;28;20054;-83
2023/10/07 10:49:54;;;;;;;333.38;33.72;;;19.70;85.80;;;;;;4946079;28;20050;-85
2023/10/07 10:52:22;;;;;;;12.43;2.20;;;19.80;86.90;;;;;;4952411;28;20058;-82
2023/10/07 10:54:49;;;;;;;8.18;2.00;;;19.90;86.30;;;;;;4950572;28;20050;-84
2023/10/07 10:57:19;;;;;;;8.52;2.45;;;20.10;83.10;;;;;;4933516;28;20069;-83
2023/10/07 10:59:50;;;;;;;6.32;1.52;;;20.30;80.30;;;;;;4939189;28;20054;-82
2023/10/07 11:02:22;;;;;;;7.13;1.98;;;20.40;79.10;;;;;;4933029;28;20188;-83
2023/10/07 11:04:54;;;;;;;7.20;1.85;;;20.40;79.40;;;;;;4961836;28;20166;-81
2023/10/07 11:07:22;;;;;;;;;;;20.50;79.30;;;;;;4949004;28;20179;-83
2023/10/07 11:09:53;;;;;;;5.88;1.80;;;20.70;78.90;;;;;;4950728;28;19930;-83
2023/10/07 11:12:26;;;;;;;5.32;1.85;;;20.60;79.00;;;;;;4947259;28;22613;-84
2023/10/07 11:15:07;;;;;;;5.10;1.80;;;20.80;76.60;;;;;;4951729;28;20050;-82
2023/10/07 11:17:56;;;;;;;4.28;1.48;;;20.80;75.10;;;;;;4977976;28;20038;-82
2023/10/07 11:20:24;;;;;;;11.07;2.22;;;20.70;74.80;;;;;;4956098;28;20215;-81
2023/10/07 11:22:53;;;;;;;7.75;2.10;;;20.70;76.10;;;;;;4949947;28;20049;-89
2023/10/07 11:25:25;;;;;;;4.78;1.85;;;20.80;74.50;;;;;;4965188;28;20204;-82
2023/10/07 11:27:55;;;;;;;6.75;2.05;;;20.90;74.50;;;;;;4939579;28;20138;-82
2023/10/07 11:30:23;;;;;;;6.00;1.90;;;21.00;73.50;;;;;;4962584;28;20903;-81
2023/10/07 11:32:51;;;;;;;6.30;2.45;;;21.00;74.90;;;;;;4945585;28;20055;-81
2023/10/07 11:35:21;;;;;;;5.65;2.00;;;21.10;73.80;;;;;;4938028;28;20058;-83
2023/10/07 11:38:02;;;;;;;5.68;1.83;;;21.10;72.90;;;;;;4953875;28;20054;-80
2023/10/07 11:40:32;;;;;;;6.00;1.98;;;21.10;73.60;;;;;;4932490;28;20059;-80
2023/10/07 11:43:04;;;;;;;9.48;2.22;;;21.00;73.40;;;;;;4951054;28;20050;-84
2023/10/07 11:45:32;;;;;;;7.05;1.65;;;21.10;72.50;;;;;;4964447;28;20053;-83
2023/10/07 11:48:00;;;;;;;9.55;1.60;;;21.10;73.50;;;;;;4940170;28;20403;-82
2023/10/07 11:50:29;;;;;;;3.78;1.70;;;21.20;71.20;;;;;;4949103;28;20149;-82
2023/10/07 11:52:56;;;;;;;5.55;1.65;;;21.20;70.00;;;;;;4952583;28;20052;-83
2023/10/07 11:55:24;;;;;;;6.00;1.40;;;21.20;69.20;;;;;;4955367;28;20197;-84
2023/10/07 11:57:51;;;;;;;4.00;1.20;;;21.30;68.00;;;;;;4954678;28;20046;-83
2023/10/07 12:00:29;;;;;;;5.43;1.35;;;21.30;68.50;;;;;;4940090;28;20047;-83
2023/10/07 12:02:59;;;;;;;5.95;2.10;;;21.30;67.40;;;;;;4970365;28;20054;-82
2023/10/07 12:05:27;;;;;;;6.70;1.42;;;21.50;67.20;;;;;;4951337;28;20050;-81
2023/10/07 12:07:59;;;;;;;5.03;1.38;;;21.40;66.50;;;;;;4946328;28;20177;-81
2023/10/07 12:10:36;;;;;;;4.10;1.40;;;21.30;66.80;;;;;;4971295;28;20123;-83
2023/10/07 12:13:11;;;;;;;5.47;1.92;;;21.50;66.80;;;;;;4928722;28;20054;-81
2023/10/07 12:15:41;;;;;;;4.47;1.50;;;21.50;67.40;;;;;;4969183;28;20046;-83
2023/10/07 12:18:27;;;;;;;4.00;1.40;;;21.50;68.30;;;;;;4954052;28;20070;-83
2023/10/07 12:20:56;;;;;;;4.55;1.13;;;21.50;69.50;;;;;;4949592;28;20077;-81
2023/10/07 12:23:23;;;;;;;5.72;1.40;;;21.50;69.70;;;;;;4943697;28;20054;-82
2023/10/07 12:25:50;;;;;;;4.57;1.58;;;21.50;70.50;;;;;;4968568;28;20050;-88
2023/10/07 12:28:18;;;;;;;4.22;1.33;;;21.70;67.20;;;;;;4947924;28;20061;-81
2023/10/07 12:30:49;;;;;;;4.35;1.30;;;21.80;65.80;;;;;;4930117;28;20524;-81
2023/10/07 12:33:16;;;;;;;6.72;1.27;;;21.70;66.20;;;;;;4967267;28;20527;-81
2023/10/07 12:36:09;;;;;;;5.20;1.35;;;21.70;65.10;;;;;;4970473;28;20202;-81
2023/10/07 12:38:37;;;;;;;4.40;1.48;;;21.80;64.40;;;;;;4931278;28;20054;-82
2023/10/07 12:41:06;;;;;;;3.42;1.17;;;21.70;64.10;;;;;;4929669;28;20065;-83
2023/10/07 12:43:36;;;;;;;4.07;1.13;;;21.70;65.20;;;;;;4983470;28;22604;-86
2023/10/07 12:46:09;;;;;;;2.80;1.08;;;21.70;64.30;;;;;;4942728;28;20051;-81
2023/10/07 12:48:40;;;;;;;2.53;0.88;;;21.60;65.10;;;;;;4927975;28;20051;-80
2023/10/07 12:51:08;;;;;;;4.45;1.30;;;21.60;65.40;;;;;;4955924;28;20071;-80
2023/10/07 12:53:36;;;;;;;5.38;1.38;;;21.50;66.40;;;;;;4949217;28;20054;-80
2023/10/07 12:56:19;;;;;;;6.63;1.63;;;21.50;66.40;;;;;;4947212;28;20058;-81
2023/10/07 12:58:47;;;;;;;3.75;1.33;;;21.30;67.10;;;;;;4933870;28;20046;-80
2023/10/07 13:01:19;;;;;;;5.05;1.40;;;21.30;67.40;;;;;;4944636;28;20045;-81
2023/10/07 13:03:47;;;;;;;3.95;1.40;;;21.20;67.80;;;;;;4928089;28;22719;-81
2023/10/07 13:06:15;;;;;;;4.75;1.23;;;21.10;68.60;;;;;;4950414;28;20054;-79
2023/10/07 13:08:43;;;;;;;3.85;1.27;;;21.10;69.20;;;;;;4938435;28;22611;-81
2023/10/07 13:11:13;;;;;;;6.25;1.52;;;21.00;69.10;;;;;;4971281;28;20078;-79
2023/10/07 13:13:45;;;;;;;6.50;2.17;;;20.80;70.10;;;;;;4926599;28;20121;-80
2023/10/07 13:16:14;;;;;;;6.15;1.75;;;20.80;70.90;;;;;;4930813;28;20092;-80
2023/10/07 13:18:42;;;;;;;3.22;0.93;;;20.90;70.40;;;;;;4942204;28;20057;-82
2023/10/07 13:21:19;;;;;;;3.30;0.90;;;20.80;71.00;;;;;;4924186;28;20050;-81
2023/10/07 13:23:47;;;;;;;6.93;1.25;;;20.80;72.00;;;;;;4934056;28;20236;-83
2023/10/07 13:26:14;;;;;;;3.20;0.85;;;20.90;71.30;;;;;;4938850;28;20054;-82
2023/10/07 13:28:42;;;;;;;3.45;1.10;;;20.90;71.40;;;;;;4930829;28;20073;-81
2023/10/07 13:31:10;;;;;;;5.43;1.60;;;20.90;71.70;;;;;;4951185;28;20181;-82
2023/10/07 13:33:38;;;;;;;20.02;5.22;;;20.70;72.20;;;;;;4952890;28;20089;-83
2023/10/07 13:36:07;;;;;;;3.88;1.30;;;20.70;73.50;;;;;;4928185;28;20051;-84
2023/10/07 13:38:35;;;;;;;3.67;1.05;;;20.70;74.20;;;;;;4924662;28;20058;-81
2023/10/07 13:41:05;;;;;;;12.50;2.85;;;20.70;73.60;;;;;;4957656;28;20185;-83
2023/10/07 13:43:33;;;;;;;5.63;1.27;;;20.70;73.70;;;;;;4960913;28;20053;-83
2023/10/07 13:46:10;;;;;;;5.18;1.50;;;20.70;73.50;;;;;;4928407;28;20197;-82
2023/10/07 13:48:38;;;;;;;5.40;1.40;;;20.70;73.90;;;;;;4947238;28;20198;-83
2023/10/07 13:51:06;;;;;;;7.22;2.15;;;20.60;74.20;;;;;;4938556;28;20045;-81
2023/10/07 13:54:21;;;;;;;4.20;1.30;;;20.60;74.20;;;;;;4945193;28;20050;-82
2023/10/07 13:56:47;;;;;;;6.72;1.20;;;20.60;75.00;;;;;;4955605;28;20799;-82
2023/10/07 13:59:15;;;;;;;4.07;1.40;;;20.60;74.60;;;;;;4949911;28;20183;-82
2023/10/07 14:01:46;;;;;;;3.28;1.20;;;20.70;74.50;;;;;;4936774;28;20057;-83